メインページ
METAR-TAF:

METAR-TAF

空港 :

グアテマラシティ, グアテマラ

ラ・アウロラ国際空港

緯度: 14-35N, 経度: 090-31W, 海抜: 1489m

現時点の気象観測

当レポートは29分前の16:00(UTC)に作成
の風 6kt
気温 21°C
湿度 56%
気圧 1025 hPa
視程10km以上
高度1800ftの雲はほとんどない
高度20000ftの雲はほとんどない

METAR: MGGT 221600Z 18006KT 9999 FEW018 21/12 Q1025 A3027 FEW200

時間: 10:29 (16:29 UTC)

予報

当レポートは5時間29分前の11:00(UTC)に作成
予報は22日の 12時(UTC)から 23日の 12時(UTC)まで有効
変向風 3kt
視程: 5000m
高度1400ftの曇り
22日の 15時(UTC)から 22日の 17時(UTC)まで徐々に
視程: 8000m
高度1800ftの雲は散在している
確率 30% :
22日の 20時(UTC)から 22日の 24時(UTC)まで一時的に
高度1800ftの雲は散在している
23日の 00時(UTC)から 23日の 02時(UTC)まで徐々に
の風 8kt
視程10km以上
高度1600ftの雲は散在している
23日の 08時(UTC)から 23日の 10時(UTC)まで徐々に
高度1200ftの雲は散在している

TAF: MGGT 221100Z 2212/2312 VRB03KT 5000 BR OVC014 TX26/2220Z TN13/2212Z BECMG 2215/2217 8000 SCT018 PROB30 TEMPO 2220/2224 SCT018 BECMG 2300/2302 36008KT 9999 SCT016 BECMG 2308/2310 SCT012

4,000以上の空港の気象観測と天気予報(METAR報とTAF報)

利用可能な観測所は地図上に黄色い丸と赤い丸で示す。

丸の上にカーソルを重ねると観測所名を参照できる。

次にクリックすると気象観測と天気予報を参照できる。

マップの切り替え:黒色「×」印の緑ボタンをクリックして拡大、「-」印の緑ボタンをクリックして縮小、緑色の三角印をクリックして隣りの地図に切り替え


METAR-TAF: